sensor_id;sensor_type;location;lat;lon;timestamp;P1;durP1;ratioP1;P2;durP2;ratioP2
56043;SDS011;41912;51.022;3.664;2023-05-07T00:01:26;23.80;;;5.13;;
56043;SDS011;41912;51.022;3.664;2023-05-07T00:03:52;10.63;;;3.95;;
56043;SDS011;41912;51.022;3.664;2023-05-07T00:06:18;14.90;;;3.83;;
56043;SDS011;41912;51.022;3.664;2023-05-07T00:08:44;10.10;;;3.22;;
56043;SDS011;41912;51.022;3.664;2023-05-07T00:11:10;13.48;;;4.38;;
56043;SDS011;41912;51.022;3.664;2023-05-07T00:13:35;12.27;;;4.25;;
56043;SDS011;41912;51.022;3.664;2023-05-07T00:16:01;6.68;;;3.25;;
56043;SDS011;41912;51.022;3.664;2023-05-07T00:18:28;13.18;;;3.72;;
56043;SDS011;41912;51.022;3.664;2023-05-07T00:20:53;11.80;;;4.13;;
56043;SDS011;41912;51.022;3.664;2023-05-07T00:23:19;8.48;;;3.10;;
56043;SDS011;41912;51.022;3.664;2023-05-07T00:25:44;12.25;;;3.75;;
56043;SDS011;41912;51.022;3.664;2023-05-07T00:28:10;10.10;;;3.30;;
56043;SDS011;41912;51.022;3.664;2023-05-07T00:30:36;13.07;;;4.20;;
56043;SDS011;41912;51.022;3.664;2023-05-07T00:33:01;14.48;;;4.40;;
56043;SDS011;41912;51.022;3.664;2023-05-07T00:35:28;7.05;;;3.00;;
56043;SDS011;41912;51.022;3.664;2023-05-07T00:37:54;13.70;;;4.28;;
56043;SDS011;41912;51.022;3.664;2023-05-07T00:40:20;9.07;;;3.90;;
56043;SDS011;41912;51.022;3.664;2023-05-07T00:42:46;11.57;;;3.80;;
56043;SDS011;41912;51.022;3.664;2023-05-07T00:45:13;14.77;;;5.47;;
56043;SDS011;41912;51.022;3.664;2023-05-07T00:47:40;8.13;;;3.50;;
56043;SDS011;41912;51.022;3.664;2023-05-07T00:50:06;12.32;;;3.50;;
56043;SDS011;41912;51.022;3.664;2023-05-07T00:52:35;13.90;;;3.85;;
56043;SDS011;41912;51.022;3.664;2023-05-07T00:55:04;8.93;;;3.60;;
56043;SDS011;41912;51.022;3.664;2023-05-07T00:57:37;10.60;;;3.63;;
56043;SDS011;41912;51.022;3.664;2023-05-07T01:00:04;15.75;;;4.55;;
56043;SDS011;41912;51.022;3.664;2023-05-07T01:02:32;11.80;;;4.07;;
56043;SDS011;41912;51.022;3.664;2023-05-07T01:04:58;10.02;;;3.60;;
56043;SDS011;41912;51.022;3.664;2023-05-07T01:07:25;9.73;;;3.88;;
56043;SDS011;41912;51.022;3.664;2023-05-07T01:09:52;13.85;;;4.15;;
56043;SDS011;41912;51.022;3.664;2023-05-07T01:12:18;15.35;;;3.90;;
56043;SDS011;41912;51.022;3.664;2023-05-07T01:14:44;10.18;;;3.90;;
56043;SDS011;41912;51.022;3.664;2023-05-07T01:17:10;13.93;;;4.03;;
56043;SDS011;41912;51.022;3.664;2023-05-07T01:19:36;8.32;;;3.35;;
56043;SDS011;41912;51.022;3.664;2023-05-07T01:22:04;8.43;;;3.20;;
56043;SDS011;41912;51.022;3.664;2023-05-07T01:27:00;8.25;;;3.10;;
56043;SDS011;41912;51.022;3.664;2023-05-07T01:29:26;9.77;;;3.90;;
56043;SDS011;41912;51.022;3.664;2023-05-07T01:31:53;8.00;;;3.80;;
56043;SDS011;41912;51.022;3.664;2023-05-07T01:34:19;11.93;;;3.70;;
56043;SDS011;41912;51.022;3.664;2023-05-07T01:36:46;14.88;;;3.45;;
56043;SDS011;41912;51.022;3.664;2023-05-07T01:39:13;10.65;;;3.60;;
56043;SDS011;41912;51.022;3.664;2023-05-07T01:41:39;9.43;;;3.33;;
56043;SDS011;41912;51.022;3.664;2023-05-07T01:44:05;10.25;;;3.10;;
56043;SDS011;41912;51.022;3.664;2023-05-07T01:46:31;12.40;;;3.40;;
56043;SDS011;41912;51.022;3.664;2023-05-07T01:48:57;10.23;;;3.67;;
56043;SDS011;41912;51.022;3.664;2023-05-07T01:51:23;14.93;;;3.60;;
56043;SDS011;41912;51.022;3.664;2023-05-07T01:53:49;11.52;;;3.65;;
56043;SDS011;41912;51.022;3.664;2023-05-07T01:56:17;11.63;;;3.40;;
56043;SDS011;41912;51.022;3.664;2023-05-07T01:58:44;11.68;;;3.97;;
56043;SDS011;41912;51.022;3.664;2023-05-07T02:01:11;8.20;;;3.35;;
56043;SDS011;41912;51.022;3.664;2023-05-07T02:03:37;7.80;;;3.38;;
56043;SDS011;41912;51.022;3.664;2023-05-07T02:06:03;9.27;;;3.30;;
56043;SDS011;41912;51.022;3.664;2023-05-07T02:08:28;10.70;;;3.15;;
56043;SDS011;41912;51.022;3.664;2023-05-07T02:10:54;9.63;;;3.70;;
56043;SDS011;41912;51.022;3.664;2023-05-07T02:13:20;9.40;;;3.70;;
56043;SDS011;41912;51.022;3.664;2023-05-07T02:15:47;13.50;;;4.03;;
56043;SDS011;41912;51.022;3.664;2023-05-07T02:18:15;9.80;;;3.72;;
56043;SDS011;41912;51.022;3.664;2023-05-07T02:20:41;11.27;;;3.58;;
56043;SDS011;41912;51.022;3.664;2023-05-07T02:23:07;9.90;;;3.50;;
56043;SDS011;41912;51.022;3.664;2023-05-07T02:25:33;9.02;;;3.75;;
56043;SDS011;41912;51.022;3.664;2023-05-07T02:27:58;10.27;;;3.63;;
56043;SDS011;41912;51.022;3.664;2023-05-07T02:30:24;10.05;;;4.15;;
56043;SDS011;41912;51.022;3.664;2023-05-07T02:32:50;11.15;;;3.58;;
56043;SDS011;41912;51.022;3.664;2023-05-07T02:35:16;10.52;;;3.47;;
56043;SDS011;41912;51.022;3.664;2023-05-07T02:37:42;6.90;;;3.13;;
56043;SDS011;41912;51.022;3.664;2023-05-07T02:40:08;9.18;;;3.88;;
56043;SDS011;41912;51.022;3.664;2023-05-07T02:42:34;7.75;;;3.67;;
56043;SDS011;41912;51.022;3.664;2023-05-07T02:45:00;8.32;;;3.30;;
56043;SDS011;41912;51.022;3.664;2023-05-07T02:47:26;10.20;;;3.97;;
56043;SDS011;41912;51.022;3.664;2023-05-07T02:49:53;12.35;;;4.20;;
56043;SDS011;41912;51.022;3.664;2023-05-07T02:52:19;9.18;;;3.20;;
56043;SDS011;41912;51.022;3.664;2023-05-07T02:54:45;11.40;;;3.92;;
56043;SDS011;41912;51.022;3.664;2023-05-07T02:57:10;10.73;;;3.50;;
56043;SDS011;41912;51.022;3.664;2023-05-07T02:59:36;9.32;;;4.28;;
56043;SDS011;41912;51.022;3.664;2023-05-07T03:02:01;12.48;;;3.67;;
56043;SDS011;41912;51.022;3.664;2023-05-07T03:04:27;14.13;;;3.65;;
56043;SDS011;41912;51.022;3.664;2023-05-07T03:06:53;8.00;;;3.72;;
56043;SDS011;41912;51.022;3.664;2023-05-07T03:09:18;12.35;;;3.72;;
56043;SDS011;41912;51.022;3.664;2023-05-07T03:11:44;10.82;;;3.63;;
56043;SDS011;41912;51.022;3.664;2023-05-07T03:14:09;10.88;;;3.33;;
56043;SDS011;41912;51.022;3.664;2023-05-07T03:16:35;9.13;;;3.58;;
56043;SDS011;41912;51.022;3.664;2023-05-07T03:19:01;8.85;;;3.33;;
56043;SDS011;41912;51.022;3.664;2023-05-07T03:21:26;13.57;;;4.25;;
56043;SDS011;41912;51.022;3.664;2023-05-07T03:23:52;22.58;;;3.38;;
56043;SDS011;41912;51.022;3.664;2023-05-07T03:26:18;14.63;;;3.15;;
56043;SDS011;41912;51.022;3.664;2023-05-07T03:28:43;13.00;;;3.28;;
56043;SDS011;41912;51.022;3.664;2023-05-07T03:31:09;13.20;;;3.75;;
56043;SDS011;41912;51.022;3.664;2023-05-07T03:33:35;9.38;;;2.88;;
56043;SDS011;41912;51.022;3.664;2023-05-07T03:36:04;11.57;;;3.92;;
56043;SDS011;41912;51.022;3.664;2023-05-07T03:38:29;10.00;;;3.50;;
56043;SDS011;41912;51.022;3.664;2023-05-07T03:40:55;11.32;;;3.53;;
56043;SDS011;41912;51.022;3.664;2023-05-07T03:43:20;12.18;;;3.50;;
56043;SDS011;41912;51.022;3.664;2023-05-07T03:45:46;9.38;;;3.35;;
56043;SDS011;41912;51.022;3.664;2023-05-07T03:48:12;5.68;;;3.25;;
56043;SDS011;41912;51.022;3.664;2023-05-07T03:50:37;7.05;;;3.38;;
56043;SDS011;41912;51.022;3.664;2023-05-07T03:53:03;5.45;;;2.72;;
56043;SDS011;41912;51.022;3.664;2023-05-07T03:55:29;9.30;;;3.42;;
56043;SDS011;41912;51.022;3.664;2023-05-07T03:57:54;11.45;;;3.78;;
56043;SDS011;41912;51.022;3.664;2023-05-07T04:00:21;8.32;;;3.53;;
56043;SDS011;41912;51.022;3.664;2023-05-07T04:02:47;14.82;;;3.65;;
56043;SDS011;41912;51.022;3.664;2023-05-07T04:05:13;8.35;;;3.38;;
56043;SDS011;41912;51.022;3.664;2023-05-07T04:07:40;12.52;;;4.00;;
56043;SDS011;41912;51.022;3.664;2023-05-07T04:10:05;16.10;;;4.65;;
56043;SDS011;41912;51.022;3.664;2023-05-07T04:12:31;11.32;;;4.25;;
56043;SDS011;41912;51.022;3.664;2023-05-07T04:14:57;13.48;;;3.65;;
56043;SDS011;41912;51.022;3.664;2023-05-07T04:17:22;11.63;;;2.90;;
56043;SDS011;41912;51.022;3.664;2023-05-07T04:19:48;12.18;;;3.88;;
56043;SDS011;41912;51.022;3.664;2023-05-07T04:22:14;9.80;;;3.75;;
56043;SDS011;41912;51.022;3.664;2023-05-07T04:24:39;7.88;;;3.03;;
56043;SDS011;41912;51.022;3.664;2023-05-07T04:27:05;7.05;;;3.40;;
56043;SDS011;41912;51.022;3.664;2023-05-07T04:29:31;10.85;;;3.42;;
56043;SDS011;41912;51.022;3.664;2023-05-07T04:31:57;9.02;;;3.53;;
56043;SDS011;41912;51.022;3.664;2023-05-07T04:34:23;10.55;;;3.60;;
56043;SDS011;41912;51.022;3.664;2023-05-07T04:36:49;12.07;;;3.92;;
56043;SDS011;41912;51.022;3.664;2023-05-07T04:39:15;9.93;;;4.00;;
56043;SDS011;41912;51.022;3.664;2023-05-07T04:41:41;9.43;;;3.97;;
56043;SDS011;41912;51.022;3.664;2023-05-07T04:44:06;8.02;;;3.55;;
56043;SDS011;41912;51.022;3.664;2023-05-07T04:46:32;8.50;;;3.28;;
56043;SDS011;41912;51.022;3.664;2023-05-07T04:48:57;11.38;;;4.35;;
56043;SDS011;41912;51.022;3.664;2023-05-07T04:51:23;6.20;;;3.22;;
56043;SDS011;41912;51.022;3.664;2023-05-07T04:53:49;11.50;;;3.90;;
56043;SDS011;41912;51.022;3.664;2023-05-07T04:56:15;11.10;;;3.60;;
56043;SDS011;41912;51.022;3.664;2023-05-07T04:58:41;8.65;;;3.92;;
56043;SDS011;41912;51.022;3.664;2023-05-07T05:01:06;12.93;;;3.42;;
56043;SDS011;41912;51.022;3.664;2023-05-07T05:03:32;14.32;;;4.72;;
56043;SDS011;41912;51.022;3.664;2023-05-07T05:05:58;7.47;;;3.47;;
56043;SDS011;41912;51.022;3.664;2023-05-07T05:08:24;12.27;;;4.20;;
56043;SDS011;41912;51.022;3.664;2023-05-07T05:10:50;11.38;;;4.20;;
56043;SDS011;41912;51.022;3.664;2023-05-07T05:13:16;9.10;;;3.40;;
56043;SDS011;41912;51.022;3.664;2023-05-07T05:15:41;7.35;;;3.05;;
56043;SDS011;41912;51.022;3.664;2023-05-07T05:18:07;7.95;;;3.13;;
56043;SDS011;41912;51.022;3.664;2023-05-07T05:20:33;10.40;;;4.20;;
56043;SDS011;41912;51.022;3.664;2023-05-07T05:22:58;13.38;;;4.53;;
56043;SDS011;41912;51.022;3.664;2023-05-07T05:25:24;10.18;;;3.80;;
56043;SDS011;41912;51.022;3.664;2023-05-07T05:27:50;14.23;;;4.68;;
56043;SDS011;41912;51.022;3.664;2023-05-07T05:30:15;8.32;;;3.60;;
56043;SDS011;41912;51.022;3.664;2023-05-07T05:32:41;11.43;;;4.72;;
56043;SDS011;41912;51.022;3.664;2023-05-07T05:35:06;14.65;;;5.35;;
56043;SDS011;41912;51.022;3.664;2023-05-07T05:37:32;11.10;;;4.75;;
56043;SDS011;41912;51.022;3.664;2023-05-07T05:39:58;8.20;;;4.55;;
56043;SDS011;41912;51.022;3.664;2023-05-07T05:42:24;8.48;;;4.65;;
56043;SDS011;41912;51.022;3.664;2023-05-07T05:44:49;15.65;;;4.93;;
56043;SDS011;41912;51.022;3.664;2023-05-07T05:47:15;9.35;;;5.10;;
56043;SDS011;41912;51.022;3.664;2023-05-07T05:49:41;11.20;;;5.32;;
56043;SDS011;41912;51.022;3.664;2023-05-07T05:52:08;15.63;;;5.35;;
56043;SDS011;41912;51.022;3.664;2023-05-07T05:54:33;10.80;;;5.35;;
56043;SDS011;41912;51.022;3.664;2023-05-07T05:56:59;14.35;;;5.60;;
56043;SDS011;41912;51.022;3.664;2023-05-07T05:59:25;14.45;;;5.25;;
56043;SDS011;41912;51.022;3.664;2023-05-07T06:01:50;13.60;;;5.35;;
56043;SDS011;41912;51.022;3.664;2023-05-07T06:04:16;13.82;;;5.68;;
56043;SDS011;41912;51.022;3.664;2023-05-07T06:06:42;22.17;;;6.53;;
56043;SDS011;41912;51.022;3.664;2023-05-07T06:09:07;15.10;;;5.88;;
56043;SDS011;41912;51.022;3.664;2023-05-07T06:11:33;17.98;;;5.72;;
56043;SDS011;41912;51.022;3.664;2023-05-07T06:13:58;13.15;;;5.47;;
56043;SDS011;41912;51.022;3.664;2023-05-07T06:16:24;10.13;;;5.13;;
56043;SDS011;41912;51.022;3.664;2023-05-07T06:18:50;10.43;;;5.45;;
56043;SDS011;41912;51.022;3.664;2023-05-07T06:21:15;9.98;;;4.75;;
56043;SDS011;41912;51.022;3.664;2023-05-07T06:23:41;15.15;;;5.60;;
56043;SDS011;41912;51.022;3.664;2023-05-07T06:26:07;14.13;;;5.47;;
56043;SDS011;41912;51.022;3.664;2023-05-07T06:28:33;13.63;;;5.20;;
56043;SDS011;41912;51.022;3.664;2023-05-07T06:31:11;16.85;;;5.38;;
56043;SDS011;41912;51.022;3.664;2023-05-07T06:33:41;14.60;;;5.30;;
56043;SDS011;41912;51.022;3.664;2023-05-07T06:36:07;13.18;;;5.57;;
56043;SDS011;41912;51.022;3.664;2023-05-07T06:38:33;14.25;;;5.05;;
56043;SDS011;41912;51.022;3.664;2023-05-07T06:40:58;11.93;;;5.10;;
56043;SDS011;41912;51.022;3.664;2023-05-07T06:43:24;14.18;;;5.43;;
56043;SDS011;41912;51.022;3.664;2023-05-07T06:45:49;8.27;;;4.82;;
56043;SDS011;41912;51.022;3.664;2023-05-07T06:48:15;13.75;;;5.32;;
56043;SDS011;41912;51.022;3.664;2023-05-07T06:50:41;11.25;;;5.00;;
56043;SDS011;41912;51.022;3.664;2023-05-07T06:53:07;7.05;;;4.43;;
56043;SDS011;41912;51.022;3.664;2023-05-07T06:55:32;14.50;;;4.95;;
56043;SDS011;41912;51.022;3.664;2023-05-07T06:57:58;9.65;;;4.78;;
56043;SDS011;41912;51.022;3.664;2023-05-07T07:00:26;13.27;;;4.90;;
56043;SDS011;41912;51.022;3.664;2023-05-07T07:02:52;7.97;;;4.45;;
56043;SDS011;41912;51.022;3.664;2023-05-07T07:05:18;10.00;;;4.72;;
56043;SDS011;41912;51.022;3.664;2023-05-07T07:07:44;10.75;;;4.60;;
56043;SDS011;41912;51.022;3.664;2023-05-07T07:10:09;9.52;;;4.78;;
56043;SDS011;41912;51.022;3.664;2023-05-07T07:12:35;12.48;;;4.22;;
56043;SDS011;41912;51.022;3.664;2023-05-07T07:15:01;10.23;;;4.40;;
56043;SDS011;41912;51.022;3.664;2023-05-07T07:17:27;12.20;;;4.82;;
56043;SDS011;41912;51.022;3.664;2023-05-07T07:19:53;10.00;;;4.05;;
56043;SDS011;41912;51.022;3.664;2023-05-07T07:22:19;8.88;;;4.55;;
56043;SDS011;41912;51.022;3.664;2023-05-07T07:24:44;12.48;;;4.80;;
56043;SDS011;41912;51.022;3.664;2023-05-07T07:27:10;12.50;;;4.85;;
56043;SDS011;41912;51.022;3.664;2023-05-07T07:29:35;22.02;;;4.95;;
56043;SDS011;41912;51.022;3.664;2023-05-07T07:32:01;12.23;;;5.30;;
56043;SDS011;41912;51.022;3.664;2023-05-07T07:34:27;9.63;;;4.30;;
56043;SDS011;41912;51.022;3.664;2023-05-07T07:36:52;12.60;;;4.78;;
56043;SDS011;41912;51.022;3.664;2023-05-07T07:39:18;9.95;;;4.63;;
56043;SDS011;41912;51.022;3.664;2023-05-07T07:41:44;10.27;;;4.13;;
56043;SDS011;41912;51.022;3.664;2023-05-07T07:44:09;11.38;;;4.45;;
56043;SDS011;41912;51.022;3.664;2023-05-07T07:46:37;13.88;;;4.60;;
56043;SDS011;41912;51.022;3.664;2023-05-07T07:49:03;14.20;;;4.95;;
56043;SDS011;41912;51.022;3.664;2023-05-07T07:51:29;11.43;;;4.45;;
56043;SDS011;41912;51.022;3.664;2023-05-07T07:53:55;17.33;;;4.90;;
56043;SDS011;41912;51.022;3.664;2023-05-07T07:56:22;9.18;;;4.38;;
56043;SDS011;41912;51.022;3.664;2023-05-07T07:58:48;11.90;;;4.13;;
56043;SDS011;41912;51.022;3.664;2023-05-07T08:01:14;12.93;;;4.75;;
56043;SDS011;41912;51.022;3.664;2023-05-07T08:03:39;13.00;;;4.97;;
56043;SDS011;41912;51.022;3.664;2023-05-07T08:06:05;9.23;;;4.28;;
56043;SDS011;41912;51.022;3.664;2023-05-07T08:08:31;12.38;;;4.57;;
56043;SDS011;41912;51.022;3.664;2023-05-07T08:10:57;8.05;;;4.57;;
56043;SDS011;41912;51.022;3.664;2023-05-07T08:13:22;11.95;;;5.10;;
56043;SDS011;41912;51.022;3.664;2023-05-07T08:15:48;9.75;;;4.25;;
56043;SDS011;41912;51.022;3.664;2023-05-07T08:18:13;11.80;;;4.72;;
56043;SDS011;41912;51.022;3.664;2023-05-07T08:20:40;14.02;;;5.55;;
56043;SDS011;41912;51.022;3.664;2023-05-07T08:23:06;10.80;;;5.25;;
56043;SDS011;41912;51.022;3.664;2023-05-07T08:25:33;9.95;;;4.75;;
56043;SDS011;41912;51.022;3.664;2023-05-07T08:27:59;10.63;;;4.60;;
56043;SDS011;41912;51.022;3.664;2023-05-07T08:30:25;11.35;;;4.82;;
56043;SDS011;41912;51.022;3.664;2023-05-07T08:32:51;14.18;;;4.97;;
56043;SDS011;41912;51.022;3.664;2023-05-07T08:35:16;10.35;;;4.70;;
56043;SDS011;41912;51.022;3.664;2023-05-07T08:37:42;12.55;;;5.20;;
56043;SDS011;41912;51.022;3.664;2023-05-07T08:40:09;7.68;;;4.50;;
56043;SDS011;41912;51.022;3.664;2023-05-07T08:42:35;11.88;;;5.20;;
56043;SDS011;41912;51.022;3.664;2023-05-07T08:45:04;10.65;;;4.70;;
56043;SDS011;41912;51.022;3.664;2023-05-07T08:47:35;12.68;;;5.40;;
56043;SDS011;41912;51.022;3.664;2023-05-07T08:50:09;10.23;;;4.40;;
56043;SDS011;41912;51.022;3.664;2023-05-07T08:52:35;14.15;;;4.97;;
56043;SDS011;41912;51.022;3.664;2023-05-07T08:55:02;10.05;;;4.47;;
56043;SDS011;41912;51.022;3.664;2023-05-07T08:57:28;13.10;;;4.90;;
56043;SDS011;41912;51.022;3.664;2023-05-07T08:59:54;14.40;;;5.15;;
56043;SDS011;41912;51.022;3.664;2023-05-07T09:02:20;8.23;;;4.68;;
56043;SDS011;41912;51.022;3.664;2023-05-07T09:04:45;12.35;;;4.25;;
56043;SDS011;41912;51.022;3.664;2023-05-07T09:07:11;11.85;;;4.53;;
56043;SDS011;41912;51.022;3.664;2023-05-07T09:09:37;8.50;;;4.22;;
56043;SDS011;41912;51.022;3.664;2023-05-07T09:12:03;12.68;;;4.15;;
56043;SDS011;41912;51.022;3.664;2023-05-07T09:14:29;9.57;;;4.80;;
56043;SDS011;41912;51.022;3.664;2023-05-07T09:16:55;9.50;;;4.15;;
56043;SDS011;41912;51.022;3.664;2023-05-07T09:19:25;9.77;;;4.50;;
56043;SDS011;41912;51.022;3.664;2023-05-07T09:21:58;13.23;;;4.75;;
56043;SDS011;41912;51.022;3.664;2023-05-07T09:24:25;6.82;;;4.22;;
56043;SDS011;41912;51.022;3.664;2023-05-07T09:26:50;8.02;;;3.95;;
56043;SDS011;41912;51.022;3.664;2023-05-07T09:29:16;6.80;;;3.63;;
56043;SDS011;41912;51.022;3.664;2023-05-07T09:31:42;8.75;;;4.32;;
56043;SDS011;41912;51.022;3.664;2023-05-07T09:34:08;8.55;;;3.83;;
56043;SDS011;41912;51.022;3.664;2023-05-07T09:36:33;8.13;;;4.35;;
56043;SDS011;41912;51.022;3.664;2023-05-07T09:39:00;11.43;;;3.78;;
56043;SDS011;41912;51.022;3.664;2023-05-07T09:41:26;9.32;;;3.70;;
56043;SDS011;41912;51.022;3.664;2023-05-07T09:43:54;11.00;;;3.85;;
56043;SDS011;41912;51.022;3.664;2023-05-07T09:46:21;11.20;;;4.32;;
56043;SDS011;41912;51.022;3.664;2023-05-07T09:48:55;9.48;;;4.13;;
56043;SDS011;41912;51.022;3.664;2023-05-07T09:51:29;10.80;;;4.22;;
56043;SDS011;41912;51.022;3.664;2023-05-07T09:54:04;8.30;;;3.47;;
56043;SDS011;41912;51.022;3.664;2023-05-07T09:56:30;7.75;;;3.72;;
56043;SDS011;41912;51.022;3.664;2023-05-07T09:58:57;12.52;;;3.80;;
56043;SDS011;41912;51.022;3.664;2023-05-07T10:01:25;10.18;;;2.70;;
56043;SDS011;41912;51.022;3.664;2023-05-07T10:03:52;11.73;;;3.65;;
56043;SDS011;41912;51.022;3.664;2023-05-07T10:06:18;7.00;;;3.10;;
56043;SDS011;41912;51.022;3.664;2023-05-07T10:08:44;13.95;;;3.72;;
56043;SDS011;41912;51.022;3.664;2023-05-07T10:11:10;8.27;;;3.92;;
56043;SDS011;41912;51.022;3.664;2023-05-07T10:13:37;8.68;;;3.72;;
56043;SDS011;41912;51.022;3.664;2023-05-07T10:16:06;7.38;;;3.45;;
56043;SDS011;41912;51.022;3.664;2023-05-07T10:18:32;8.82;;;3.58;;
56043;SDS011;41912;51.022;3.664;2023-05-07T10:21:17;11.35;;;3.80;;
56043;SDS011;41912;51.022;3.664;2023-05-07T10:23:51;7.63;;;3.10;;
56043;SDS011;41912;51.022;3.664;2023-05-07T10:26:23;8.40;;;2.20;;
56043;SDS011;41912;51.022;3.664;2023-05-07T10:28:52;9.30;;;2.42;;
56043;SDS011;41912;51.022;3.664;2023-05-07T10:33:56;7.30;;;2.10;;
56043;SDS011;41912;51.022;3.664;2023-05-07T10:36:22;4.22;;;1.88;;
56043;SDS011;41912;51.022;3.664;2023-05-07T10:38:49;5.75;;;2.38;;
56043;SDS011;41912;51.022;3.664;2023-05-07T10:41:15;8.73;;;2.53;;
56043;SDS011;41912;51.022;3.664;2023-05-07T10:43:43;3.70;;;1.83;;
56043;SDS011;41912;51.022;3.664;2023-05-07T10:46:14;7.25;;;2.42;;
56043;SDS011;41912;51.022;3.664;2023-05-07T10:51:29;9.38;;;2.13;;
56043;SDS011;41912;51.022;3.664;2023-05-07T10:56:38;8.00;;;2.17;;
56043;SDS011;41912;51.022;3.664;2023-05-07T11:02:06;5.05;;;2.35;;
56043;SDS011;41912;51.022;3.664;2023-05-07T11:04:34;6.20;;;2.40;;
56043;SDS011;41912;51.022;3.664;2023-05-07T11:15:10;6.30;;;1.92;;
56043;SDS011;41912;51.022;3.664;2023-05-07T11:17:54;6.93;;;2.42;;
56043;SDS011;41912;51.022;3.664;2023-05-07T11:26:18;4.65;;;2.13;;
56043;SDS011;41912;51.022;3.664;2023-05-07T11:28:44;6.25;;;2.40;;
56043;SDS011;41912;51.022;3.664;2023-05-07T11:31:10;6.78;;;2.90;;
56043;SDS011;41912;51.022;3.664;2023-05-07T11:33:37;7.00;;;2.15;;
56043;SDS011;41912;51.022;3.664;2023-05-07T11:36:04;7.00;;;2.60;;
56043;SDS011;41912;51.022;3.664;2023-05-07T11:38:30;5.78;;;2.22;;
56043;SDS011;41912;51.022;3.664;2023-05-07T11:41:00;4.35;;;2.20;;
56043;SDS011;41912;51.022;3.664;2023-05-07T11:43:26;6.75;;;1.90;;
56043;SDS011;41912;51.022;3.664;2023-05-07T11:45:52;3.10;;;1.90;;
56043;SDS011;41912;51.022;3.664;2023-05-07T11:48:18;4.85;;;2.25;;
56043;SDS011;41912;51.022;3.664;2023-05-07T11:53:18;5.90;;;2.35;;
56043;SDS011;41912;51.022;3.664;2023-05-07T11:55:45;4.72;;;2.10;;
56043;SDS011;41912;51.022;3.664;2023-05-07T11:58:12;5.55;;;2.20;;
56043;SDS011;41912;51.022;3.664;2023-05-07T12:00:51;4.32;;;2.22;;
56043;SDS011;41912;51.022;3.664;2023-05-07T12:03:18;4.20;;;2.15;;
56043;SDS011;41912;51.022;3.664;2023-05-07T12:05:44;7.53;;;2.50;;
56043;SDS011;41912;51.022;3.664;2023-05-07T12:08:14;7.80;;;2.25;;
56043;SDS011;41912;51.022;3.664;2023-05-07T12:10:43;7.03;;;2.20;;
56043;SDS011;41912;51.022;3.664;2023-05-07T12:15:45;6.70;;;2.70;;
56043;SDS011;41912;51.022;3.664;2023-05-07T12:18:12;6.57;;;2.10;;
56043;SDS011;41912;51.022;3.664;2023-05-07T12:20:38;4.97;;;2.40;;
56043;SDS011;41912;51.022;3.664;2023-05-07T12:23:04;4.82;;;2.63;;
56043;SDS011;41912;51.022;3.664;2023-05-07T12:25:31;6.47;;;2.40;;
56043;SDS011;41912;51.022;3.664;2023-05-07T12:28:00;7.47;;;2.50;;
56043;SDS011;41912;51.022;3.664;2023-05-07T12:30:26;5.60;;;2.08;;
56043;SDS011;41912;51.022;3.664;2023-05-07T12:32:52;5.47;;;2.70;;
56043;SDS011;41912;51.022;3.664;2023-05-07T12:35:26;7.55;;;2.70;;
56043;SDS011;41912;51.022;3.664;2023-05-07T12:37:56;5.13;;;2.22;;
56043;SDS011;41912;51.022;3.664;2023-05-07T12:40:24;4.30;;;1.95;;
56043;SDS011;41912;51.022;3.664;2023-05-07T12:42:52;7.35;;;2.35;;
56043;SDS011;41912;51.022;3.664;2023-05-07T12:45:19;3.60;;;2.30;;
56043;SDS011;41912;51.022;3.664;2023-05-07T12:47:46;5.93;;;2.25;;
56043;SDS011;41912;51.022;3.664;2023-05-07T12:50:12;4.95;;;2.22;;
56043;SDS011;41912;51.022;3.664;2023-05-07T12:52:39;5.88;;;2.72;;
56043;SDS011;41912;51.022;3.664;2023-05-07T12:55:06;6.93;;;2.20;;
56043;SDS011;41912;51.022;3.664;2023-05-07T12:57:42;6.60;;;2.63;;
56043;SDS011;41912;51.022;3.664;2023-05-07T13:00:13;4.30;;;2.28;;
56043;SDS011;41912;51.022;3.664;2023-05-07T13:02:40;4.85;;;2.58;;
56043;SDS011;41912;51.022;3.664;2023-05-07T13:05:06;4.95;;;2.33;;
56043;SDS011;41912;51.022;3.664;2023-05-07T13:07:33;3.80;;;2.20;;
56043;SDS011;41912;51.022;3.664;2023-05-07T13:09:59;4.57;;;2.10;;
56043;SDS011;41912;51.022;3.664;2023-05-07T13:12:24;3.17;;;1.92;;
56043;SDS011;41912;51.022;3.664;2023-05-07T13:14:50;6.25;;;1.88;;
56043;SDS011;41912;51.022;3.664;2023-05-07T13:17:15;6.30;;;2.30;;
56043;SDS011;41912;51.022;3.664;2023-05-07T13:19:41;5.25;;;2.42;;
56043;SDS011;41912;51.022;3.664;2023-05-07T13:22:07;5.05;;;2.20;;
56043;SDS011;41912;51.022;3.664;2023-05-07T13:24:32;5.25;;;2.67;;
56043;SDS011;41912;51.022;3.664;2023-05-07T13:26:58;4.82;;;2.92;;
56043;SDS011;41912;51.022;3.664;2023-05-07T13:29:23;4.25;;;2.50;;
56043;SDS011;41912;51.022;3.664;2023-05-07T13:31:53;5.85;;;2.70;;
56043;SDS011;41912;51.022;3.664;2023-05-07T13:34:20;4.75;;;2.40;;
56043;SDS011;41912;51.022;3.664;2023-05-07T13:36:45;6.32;;;2.70;;
56043;SDS011;41912;51.022;3.664;2023-05-07T13:39:11;6.07;;;2.55;;
56043;SDS011;41912;51.022;3.664;2023-05-07T13:41:36;6.03;;;2.60;;
56043;SDS011;41912;51.022;3.664;2023-05-07T13:44:02;6.22;;;2.60;;
56043;SDS011;41912;51.022;3.664;2023-05-07T13:46:28;6.10;;;2.30;;
56043;SDS011;41912;51.022;3.664;2023-05-07T13:48:54;3.70;;;2.00;;
56043;SDS011;41912;51.022;3.664;2023-05-07T13:51:20;7.60;;;2.35;;
56043;SDS011;41912;51.022;3.664;2023-05-07T13:53:46;4.22;;;2.30;;
56043;SDS011;41912;51.022;3.664;2023-05-07T13:56:12;4.88;;;2.33;;
56043;SDS011;41912;51.022;3.664;2023-05-07T13:58:38;4.63;;;2.17;;
56043;SDS011;41912;51.022;3.664;2023-05-07T14:01:03;3.70;;;1.98;;
56043;SDS011;41912;51.022;3.664;2023-05-07T14:03:29;5.47;;;2.20;;
56043;SDS011;41912;51.022;3.664;2023-05-07T14:05:56;4.13;;;2.33;;
56043;SDS011;41912;51.022;3.664;2023-05-07T14:08:24;5.78;;;2.65;;
56043;SDS011;41912;51.022;3.664;2023-05-07T14:10:50;6.97;;;2.67;;
56043;SDS011;41912;51.022;3.664;2023-05-07T14:13:16;5.60;;;3.20;;
56043;SDS011;41912;51.022;3.664;2023-05-07T14:15:42;10.32;;;3.88;;
56043;SDS011;41912;51.022;3.664;2023-05-07T14:18:11;10.30;;;3.78;;
56043;SDS011;41912;51.022;3.664;2023-05-07T14:20:37;14.70;;;4.13;;
56043;SDS011;41912;51.022;3.664;2023-05-07T14:23:03;8.73;;;4.20;;
56043;SDS011;41912;51.022;3.664;2023-05-07T14:25:29;9.55;;;5.63;;
56043;SDS011;41912;51.022;3.664;2023-05-07T14:27:54;15.60;;;6.30;;
56043;SDS011;41912;51.022;3.664;2023-05-07T14:30:20;13.07;;;6.15;;
56043;SDS011;41912;51.022;3.664;2023-05-07T14:32:49;18.13;;;6.10;;
56043;SDS011;41912;51.022;3.664;2023-05-07T14:35:15;12.75;;;7.35;;
56043;SDS011;41912;51.022;3.664;2023-05-07T14:37:41;15.68;;;7.22;;
56043;SDS011;41912;51.022;3.664;2023-05-07T14:40:06;12.70;;;7.85;;
56043;SDS011;41912;51.022;3.664;2023-05-07T14:42:32;11.77;;;7.80;;
56043;SDS011;41912;51.022;3.664;2023-05-07T14:44:58;14.55;;;8.50;;
56043;SDS011;41912;51.022;3.664;2023-05-07T14:47:24;15.70;;;8.23;;
56043;SDS011;41912;51.022;3.664;2023-05-07T14:49:49;14.07;;;7.35;;
56043;SDS011;41912;51.022;3.664;2023-05-07T14:52:15;13.45;;;7.78;;
56043;SDS011;41912;51.022;3.664;2023-05-07T14:54:40;10.25;;;6.05;;
56043;SDS011;41912;51.022;3.664;2023-05-07T14:57:07;12.98;;;5.65;;
56043;SDS011;41912;51.022;3.664;2023-05-07T14:59:34;11.00;;;7.15;;
56043;SDS011;41912;51.022;3.664;2023-05-07T15:02:00;9.75;;;5.47;;
56043;SDS011;41912;51.022;3.664;2023-05-07T15:04:26;8.20;;;4.90;;
56043;SDS011;41912;51.022;3.664;2023-05-07T15:06:52;8.93;;;4.75;;
56043;SDS011;41912;51.022;3.664;2023-05-07T15:09:19;10.40;;;4.38;;